Time;durP1;ratioP1;P1;durP2;ratioP2;P2;SDS_P1;SDS_P2;PMS_P1;PMS_P2;Temp;Humidity;BMP_temperature;BMP_pressure;BME280_temperature;BME280_humidity;BME280_pressure;Samples;Min_cycle;Max_cycle;Signal;HPM_P1;HPM_P2
2023/07/05 00:01:46;;;;;;;8.57;4.20;;;;;19.00;96813.00;;;;5066502;28;20220;-87
2023/07/05 00:04:36;;;;;;;4.60;3.10;;;;;19.30;96813.00;;;;5064132;28;20211;-89
2023/07/05 00:07:25;;;;;;;8.43;4.23;;;;;18.70;96815.00;;;;5057584;28;20215;-84
2023/07/05 00:10:14;;;;;;;4.80;3.70;;;;;18.80;96835.00;;;;5062891;28;20231;-88
2023/07/05 00:13:05;;;;;;;7.23;3.80;;;;;19.00;96835.00;;;;5062130;28;20618;-87
2023/07/05 00:15:54;;;;;;;5.20;4.07;;;;;19.60;96827.00;;;;5060373;28;20193;-85
2023/07/05 00:18:43;;;;;;;5.20;3.73;;;;;19.80;96816.00;;;;5058454;28;20209;-86
2023/07/05 00:21:32;;;;;;;4.63;3.10;;;;;19.90;96820.00;;;;5060452;28;20595;-86
2023/07/05 00:24:21;;;;;;;5.63;3.77;;;;;19.50;96816.00;;;;5059676;28;20218;-86
2023/07/05 00:27:11;;;;;;;6.73;3.83;;;;;19.50;96807.00;;;;5067452;28;20222;-87
2023/07/05 00:30:01;;;;;;;9.83;3.83;;;;;19.60;96814.00;;;;5065708;28;20255;-86
2023/07/05 00:32:50;;;;;;;7.53;3.33;;;;;19.60;96827.00;;;;5062075;28;20767;-86
2023/07/05 00:35:47;;;;;;;3.60;2.97;;;;;19.70;96826.00;;;;5056969;28;20262;-89
2023/07/05 00:38:36;;;;;;;3.30;2.70;;;;;19.90;96820.00;;;;5056317;28;20200;-87
2023/07/05 00:41:25;;;;;;;4.77;3.13;;;;;19.60;96825.00;;;;5059192;28;20217;-89
2023/07/05 00:44:15;;;;;;;4.70;3.00;;;;;19.70;96825.00;;;;5058580;28;20203;-87
2023/07/05 00:47:12;;;;;;;3.77;2.73;;;;;19.80;96808.00;;;;5070659;28;20230;-87
2023/07/05 00:50:07;;;;;;;7.17;3.10;;;;;19.90;96810.00;;;;5056915;28;20229;-91
2023/07/05 00:52:56;;;;;;;3.47;2.97;;;;;19.90;96809.00;;;;5064076;28;20390;-87
2023/07/05 00:55:49;;;;;;;4.63;3.03;;;;;19.80;96808.00;;;;5058335;28;20220;-87
2023/07/05 00:58:40;;;;;;;3.17;2.70;;;;;19.90;96795.00;;;;5057196;28;20200;-87
2023/07/05 01:01:30;;;;;;;6.00;2.90;;;;;20.00;96784.00;;;;5059924;28;20239;-86
2023/07/05 01:04:21;;;;;;;8.40;3.20;;;;;19.90;96790.00;;;;5065242;28;20232;-86
2023/07/05 01:07:10;;;;;;;3.53;2.80;;;;;19.60;96780.00;;;;5061127;28;20685;-86
2023/07/05 01:10:00;;;;;;;5.73;3.30;;;;;19.50;96784.00;;;;5061282;28;20208;-86
2023/07/05 01:13:00;;;;;;;4.57;3.17;;;;;19.20;96791.00;;;;5057955;28;20221;-87
2023/07/05 01:15:53;;;;;;;5.30;3.83;;;;;19.20;96791.00;;;;5058141;28;20208;-86
2023/07/05 01:18:46;;;;;;;4.07;2.87;;;;;19.50;96791.00;;;;5064352;28;20511;-86
2023/07/05 01:21:43;;;;;;;4.37;2.87;;;;;19.40;96788.00;;;;5056587;28;20215;-86
2023/07/05 01:24:54;;;;;;;3.83;2.87;;;;;19.70;96787.00;;;;5060997;28;20229;-87
2023/07/05 01:27:59;;;;;;;4.13;2.90;;;;;19.70;96784.00;;;;5056680;28;20228;-87
2023/07/05 01:31:21;;;;;;;5.93;3.50;;;;;19.50;96772.00;;;;5061301;28;20246;-87
2023/07/05 01:34:18;;;;;;;5.60;2.90;;;;;19.30;96775.00;;;;5060957;28;20211;-86
2023/07/05 01:37:09;;;;;;;3.80;3.10;;;;;19.00;96771.00;;;;5055803;28;20670;-86
2023/07/05 01:39:58;;;;;;;3.77;2.90;;;;;19.30;96767.00;;;;5057024;28;20211;-87
2023/07/05 01:42:49;;;;;;;5.97;3.10;;;;;19.30;96754.00;;;;5061849;28;20212;-87
2023/07/05 01:45:44;;;;;;;6.97;3.33;;;;;19.30;96748.00;;;;5057721;28;20583;-85
2023/07/05 01:48:39;;;;;;;4.20;3.20;;;;;19.20;96749.00;;;;5057530;28;20200;-87
2023/07/05 01:51:34;;;;;;;4.23;3.17;;;;;19.30;96744.00;;;;5059868;28;20231;-86
2023/07/05 01:54:27;;;;;;;5.90;2.87;;;;;19.20;96745.00;;;;5061967;28;20212;-87
2023/07/05 01:57:22;;;;;;;3.27;2.97;;;;;19.20;96735.00;;;;5064560;28;20207;-87
2023/07/05 02:00:15;;;;;;;4.03;2.73;;;;;19.20;96741.00;;;;5059936;28;20200;-87
2023/07/05 02:03:07;;;;;;;4.70;3.00;;;;;18.90;96747.00;;;;5064836;28;20468;-88
2023/07/05 02:05:56;;;;;;;4.73;2.87;;;;;18.40;96744.00;;;;5063328;28;20732;-87
2023/07/05 02:08:50;;;;;;;4.13;3.17;;;;;18.20;96743.00;;;;5064874;28;20196;-85
2023/07/05 02:11:39;;;;;;;5.27;3.13;;;;;18.30;96741.00;;;;5059387;28;20227;-86
2023/07/05 02:14:29;;;;;;;5.30;2.77;;;;;18.40;96739.00;;;;5065139;28;20213;-87
2023/07/05 02:17:19;;;;;;;5.10;3.57;;;;;18.60;96744.00;;;;5059237;28;20216;-86
2023/07/05 02:20:09;;;;;;;6.87;4.00;;;;;18.50;96740.00;;;;5056220;28;20747;-88
2023/07/05 02:22:59;;;;;;;5.57;3.83;;;;;18.40;96740.00;;;;5056849;28;20200;-86
2023/07/05 02:25:51;;;;;;;5.13;3.40;;;;;18.70;96756.00;;;;5059770;28;20219;-86
2023/07/05 02:28:41;;;;;;;3.37;2.93;;;;;18.70;96752.00;;;;5067132;28;20199;-88
2023/07/05 02:31:30;;;;;;;3.17;2.87;;;;;18.30;96761.00;;;;5061542;28;20236;-87
2023/07/05 02:34:20;;;;;;;3.67;3.00;;;;;18.40;96751.00;;;;5063191;28;20204;-87
2023/07/05 02:37:09;;;;;;;5.53;3.57;;;;;18.30;96767.00;;;;5062457;28;20203;-89
2023/07/05 02:39:59;;;;;;;4.50;3.43;;;;;18.40;96764.00;;;;5061032;28;20200;-86
2023/07/05 02:42:49;;;;;;;3.13;2.53;;;;;18.80;96757.00;;;;5063504;28;20216;-86
2023/07/05 02:45:38;;;;;;;2.43;2.20;;;;;18.90;96756.00;;;;5061724;28;20234;-86
2023/07/05 02:48:27;;;;;;;3.63;2.57;;;;;18.90;96767.00;;;;5056857;28;20214;-87
2023/07/05 02:51:16;;;;;;;4.70;2.73;;;;;18.60;96756.00;;;;5058950;28;20337;-87
2023/07/05 02:54:06;;;;;;;4.93;2.63;;;;;18.40;96752.00;;;;5063978;28;20216;-88
2023/07/05 02:56:55;;;;;;;3.23;2.93;;;;;18.40;96755.00;;;;5064455;28;20200;-86
2023/07/05 02:59:45;;;;;;;3.50;2.90;;;;;18.50;96749.00;;;;5057384;28;20214;-88
2023/07/05 03:02:34;;;;;;;6.07;3.30;;;;;18.50;96759.00;;;;5057586;28;20270;-86
2023/07/05 03:05:24;;;;;;;6.53;2.63;;;;;18.20;96757.00;;;;5054244;28;20196;-88
2023/07/05 03:08:13;;;;;;;3.83;2.33;;;;;18.40;96757.00;;;;5058314;28;20691;-86
2023/07/05 03:11:02;;;;;;;5.70;2.90;;;;;18.60;96753.00;;;;5057305;28;20224;-86
2023/07/05 03:13:51;;;;;;;3.90;3.03;;;;;18.50;96758.00;;;;5060242;28;20208;-86
2023/07/05 03:16:42;;;;;;;3.83;2.57;;;;;18.40;96743.00;;;;5062242;28;20204;-88
2023/07/05 03:19:32;;;;;;;3.70;2.40;;;;;18.50;96745.00;;;;5063150;28;20254;-88
2023/07/05 03:22:22;;;;;;;4.00;2.60;;;;;18.60;96744.00;;;;5066124;28;20223;-87
2023/07/05 03:25:11;;;;;;;5.33;2.77;;;;;18.60;96750.00;;;;5062591;28;20196;-87
2023/07/05 03:28:00;;;;;;;5.18;2.70;;;;;18.50;96751.00;;;;5065472;28;20892;-86
2023/07/05 03:30:55;;;;;;;6.38;2.80;;;;;18.30;96754.00;;;;5059493;28;20412;-86
2023/07/05 03:33:45;;;;;;;3.97;2.78;;;;;18.40;96745.00;;;;5058831;28;20413;-86
2023/07/05 03:36:34;;;;;;;4.27;2.80;;;;;18.50;96746.00;;;;5065859;28;20392;-87
2023/07/05 03:39:24;;;;;;;3.95;2.60;;;;;18.30;96751.00;;;;5066452;28;20908;-88
2023/07/05 03:42:13;;;;;;;3.42;3.05;;;;;18.40;96758.00;;;;5065601;28;20388;-87
2023/07/05 03:45:02;;;;;;;3.55;2.75;;;;;18.40;96752.00;;;;5062397;28;20404;-87
2023/07/05 03:47:51;;;;;;;3.72;3.05;;;;;18.20;96751.00;;;;5062321;28;20396;-86
2023/07/05 03:50:41;;;;;;;3.83;3.00;;;;;18.20;96757.00;;;;5063954;28;20419;-87
2023/07/05 03:53:30;;;;;;;4.70;2.88;;;;;18.30;96760.00;;;;5062094;28;20400;-86
2023/07/05 03:56:20;;;;;;;3.85;2.67;;;;;18.00;96749.00;;;;5060553;28;20910;-88
2023/07/05 03:59:09;;;;;;;4.65;3.53;;;;;17.80;96753.00;;;;5057557;28;20397;-87
2023/07/05 04:01:59;;;;;;;3.78;2.65;;;;;18.00;96760.00;;;;5064203;28;20396;-86
2023/07/05 04:04:48;;;;;;;4.78;2.85;;;;;17.90;96755.00;;;;5060257;28;21246;-86
2023/07/05 04:07:39;;;;;;;4.50;3.33;;;;;17.70;96748.00;;;;5058122;28;20401;-87
2023/07/05 04:10:28;;;;;;;4.75;2.90;;;;;17.80;96746.00;;;;5055408;28;20764;-86
2023/07/05 04:13:17;;;;;;;7.40;3.25;;;;;17.90;96748.00;;;;5061641;28;20411;-86
2023/07/05 04:16:10;;;;;;;4.68;3.05;;;;;18.00;96752.00;;;;5061361;28;20384;-86
2023/07/05 04:18:59;;;;;;;4.78;3.70;;;;;18.10;96752.00;;;;5065561;28;20400;-86
2023/07/05 04:21:48;;;;;;;3.95;2.55;;;;;17.90;96741.00;;;;5057745;28;20477;-86
2023/07/05 04:24:39;;;;;;;5.30;2.78;;;;;17.80;96736.00;;;;5060419;28;20410;-85
2023/07/05 04:27:28;;;;;;;3.72;2.97;;;;;17.60;96744.00;;;;5056059;28;20411;-86
2023/07/05 04:30:17;;;;;;;4.70;2.88;;;;;17.60;96751.00;;;;5069052;28;20388;-86
2023/07/05 04:33:06;;;;;;;5.03;3.00;;;;;17.80;96747.00;;;;5058044;28;20495;-86
2023/07/05 04:35:57;;;;;;;3.58;2.67;;;;;17.90;96760.00;;;;5062289;28;20461;-87
2023/07/05 04:38:46;;;;;;;3.30;2.55;;;;;18.00;96759.00;;;;5059153;28;20402;-86
2023/07/05 04:41:37;;;;;;;5.20;2.88;;;;;17.90;96760.00;;;;5059824;28;20404;-87
2023/07/05 04:44:26;;;;;;;3.05;2.50;;;;;18.40;96749.00;;;;5064966;28;20406;-86
2023/07/05 04:47:16;;;;;;;4.35;2.80;;;;;18.50;96759.00;;;;5058530;28;20395;-86
2023/07/05 04:50:06;;;;;;;3.78;2.92;;;;;18.50;96747.00;;;;5060598;28;20427;-87
2023/07/05 04:52:55;;;;;;;4.30;2.60;;;;;18.50;96743.00;;;;5066826;28;20409;-86
2023/07/05 04:55:48;;;;;;;3.05;2.40;;;;;18.50;96733.00;;;;5067772;28;20458;-86
2023/07/05 04:58:39;;;;;;;4.07;2.53;;;;;18.40;96731.00;;;;5066102;28;20412;-88
2023/07/05 05:01:28;;;;;;;3.30;2.92;;;;;18.00;96750.00;;;;5064961;28;20409;-86
2023/07/05 05:04:17;;;;;;;3.70;2.58;;;;;18.30;96748.00;;;;5066397;28;20399;-87
2023/07/05 05:07:07;;;;;;;5.18;2.83;;;;;18.20;96745.00;;;;5057088;28;20388;-87
2023/07/05 05:09:59;;;;;;;2.63;2.35;;;;;18.20;96753.00;;;;5062311;28;20392;-85
2023/07/05 05:12:48;;;;;;;3.45;2.60;;;;;18.30;96750.00;;;;5056984;28;20406;-90
2023/07/05 05:15:40;;;;;;;5.25;2.70;;;;;18.50;96747.00;;;;5057808;28;20876;-86
2023/07/05 05:18:31;;;;;;;4.95;2.67;;;;;18.60;96747.00;;;;5058171;28;20388;-86
2023/07/05 05:21:20;;;;;;;4.75;2.70;;;;;18.60;96745.00;;;;5054391;28;20404;-85
2023/07/05 05:24:09;;;;;;;4.78;2.67;;;;;18.70;96751.00;;;;5062619;28;20911;-85
2023/07/05 05:26:58;;;;;;;4.15;2.55;;;;;19.20;96741.00;;;;5061835;28;20408;-88
2023/07/05 05:29:47;;;;;;;4.75;2.63;;;;;19.00;96747.00;;;;5060798;28;20408;-87
2023/07/05 05:32:38;;;;;;;7.90;2.58;;;;;19.60;96744.00;;;;5061400;28;21001;-87
2023/07/05 05:35:28;;;;;;;3.60;3.08;;;;;19.90;96744.00;;;;5059599;28;20494;-86
2023/07/05 05:38:18;;;;;;;4.07;3.30;;;;;19.80;96735.00;;;;5060689;28;20407;-87
2023/07/05 05:41:10;;;;;;;4.78;2.92;;;;;19.70;96732.00;;;;5061058;28;20893;-85
2023/07/05 05:43:59;;;;;;;6.22;3.33;;;;;20.00;96736.00;;;;5056486;28;20394;-86
2023/07/05 05:46:48;;;;;;;4.57;3.30;;;;;20.50;96740.00;;;;5065708;28;20201;-87
2023/07/05 05:49:39;;;;;;;3.67;2.60;;;;;20.70;96747.00;;;;5064017;28;20192;-89
2023/07/05 05:52:28;;;;;;;3.93;2.40;;;;;20.70;96736.00;;;;5060371;28;20604;-86
2023/07/05 05:55:17;;;;;;;6.60;3.60;;;;;21.00;96736.00;;;;5058526;28;20209;-87
2023/07/05 05:58:07;;;;;;;3.13;2.40;;;;;21.20;96744.00;;;;5058487;28;20211;-86
2023/07/05 06:00:56;;;;;;;6.00;3.50;;;;;21.40;96733.00;;;;5062420;28;20300;-87
2023/07/05 06:03:45;;;;;;;3.47;2.70;;;;;21.90;96732.00;;;;5061164;28;20203;-87
2023/07/05 06:06:35;;;;;;;6.30;2.63;;;;;21.40;96732.00;;;;5061811;28;20197;-86
2023/07/05 06:09:24;;;;;;;5.67;2.97;;;;;21.20;96728.00;;;;5061028;28;20309;-86
2023/07/05 06:12:14;;;;;;;5.17;3.10;;;;;21.50;96733.00;;;;5063750;28;20227;-88
2023/07/05 06:15:03;;;;;;;6.00;2.53;;;;;21.70;96721.00;;;;5062988;28;20273;-88
2023/07/05 06:17:53;;;;;;;4.57;2.87;;;;;21.80;96730.00;;;;5065676;28;20672;-87
2023/07/05 06:20:42;;;;;;;4.07;2.73;;;;;21.50;96719.00;;;;5061115;28;20282;-87
2023/07/05 06:23:32;;;;;;;6.17;2.97;;;;;22.10;96712.00;;;;5060678;28;20622;-88
2023/07/05 06:26:22;;;;;;;4.87;2.87;;;;;22.10;96718.00;;;;5063567;28;20785;-87
2023/07/05 06:29:11;;;;;;;4.63;2.73;;;;;22.20;96717.00;;;;5066902;28;20229;-87
2023/07/05 06:32:00;;;;;;;6.50;2.77;;;;;22.70;96715.00;;;;5059547;28;20228;-88
2023/07/05 06:34:49;;;;;;;6.17;2.90;;;;;23.00;96713.00;;;;5058447;28;20224;-87
2023/07/05 06:37:38;;;;;;;3.63;2.43;;;;;23.40;96719.00;;;;5050633;28;20215;-89
2023/07/05 06:40:29;;;;;;;4.23;2.67;;;;;23.70;96721.00;;;;5067749;28;20200;-87
2023/07/05 06:43:18;;;;;;;3.33;2.73;;;;;23.70;96719.00;;;;5062090;28;20893;-86
2023/07/05 06:46:07;;;;;;;4.10;2.80;;;;;24.10;96734.00;;;;5065658;28;20277;-87
2023/07/05 06:48:56;;;;;;;4.53;2.53;;;;;24.00;96721.00;;;;5063410;28;20204;-86
2023/07/05 06:51:45;;;;;;;3.47;2.17;;;;;24.20;96731.00;;;;5057340;28;20219;-87
2023/07/05 06:54:34;;;;;;;5.20;2.63;;;;;24.20;96725.00;;;;5062137;28;20256;-87
2023/07/05 06:57:25;;;;;;;3.40;2.27;;;;;24.60;96736.00;;;;5062312;28;20201;-87
2023/07/05 07:00:15;;;;;;;11.63;2.80;;;;;24.60;96731.00;;;;5065580;28;20600;-87
2023/07/05 07:03:04;;;;;;;5.23;2.70;;;;;24.80;96724.00;;;;5064219;28;20664;-87
2023/07/05 07:05:55;;;;;;;4.47;2.13;;;;;25.00;96735.00;;;;5068125;28;20212;-87
2023/07/05 07:08:44;;;;;;;4.57;2.33;;;;;25.20;96734.00;;;;5067064;28;20212;-87
2023/07/05 07:11:33;;;;;;;3.90;2.87;;;;;25.20;96730.00;;;;5067833;28;20219;-88
2023/07/05 07:14:25;;;;;;;4.20;2.50;;;;;25.60;96734.00;;;;5065777;28;20719;-87
2023/07/05 07:17:14;;;;;;;3.27;2.20;;;;;25.60;96731.00;;;;5065534;28;20257;-88
2023/07/05 07:20:04;;;;;;;5.03;2.30;;;;;25.80;96732.00;;;;5066676;28;20222;-88
2023/07/05 07:22:53;;;;;;;4.50;2.43;;;;;25.80;96739.00;;;;5067447;28;20362;-88
2023/07/05 07:25:44;;;;;;;3.97;2.30;;;;;25.90;96727.00;;;;5066432;28;20591;-88
2023/07/05 07:28:34;;;;;;;6.37;2.53;;;;;26.20;96728.00;;;;5070671;28;20265;-88
2023/07/05 07:31:26;;;;;;;6.97;3.07;;;;;26.20;96721.00;;;;5068308;28;20228;-87
2023/07/05 07:34:15;;;;;;;3.27;2.60;;;;;26.40;96723.00;;;;5066852;28;20216;-88
2023/07/05 07:37:05;;;;;;;2.37;1.97;;;;;26.60;96716.00;;;;5067228;28;20195;-88
2023/07/05 07:39:54;;;;;;;5.27;2.67;;;;;26.40;96717.00;;;;5067782;28;20577;-88
2023/07/05 07:42:43;;;;;;;3.77;2.40;;;;;26.90;96723.00;;;;5066409;28;20232;-88
2023/07/05 07:45:33;;;;;;;3.23;2.40;;;;;27.10;96713.00;;;;5065078;28;20192;-88
2023/07/05 07:48:23;;;;;;;2.33;2.13;;;;;27.40;96709.00;;;;5066335;28;20215;-88
2023/07/05 07:51:13;;;;;;;4.00;2.33;;;;;27.50;96718.00;;;;5069702;28;20232;-87
2023/07/05 07:54:09;;;;;;;3.77;2.40;;;;;27.40;96723.00;;;;5067188;28;20582;-88
2023/07/05 07:56:58;;;;;;;5.83;2.70;;;;;27.50;96712.00;;;;5070449;28;20208;-88
2023/07/05 07:59:47;;;;;;;2.87;2.23;;;;;27.70;96721.00;;;;5066294;28;20202;-88
2023/07/05 08:02:36;;;;;;;4.00;3.00;;;;;27.80;96719.00;;;;5067033;28;20221;-88
2023/07/05 08:05:28;;;;;;;4.87;2.70;;;;;27.80;96724.00;;;;5065112;28;20199;-88
2023/07/05 08:08:17;;;;;;;3.90;2.63;;;;;27.20;96724.00;;;;5068217;28;20249;-88
2023/07/05 08:11:08;;;;;;;6.00;3.03;;;;;27.30;96725.00;;;;5066124;28;20222;-87
2023/07/05 08:14:05;;;;;;;5.67;2.67;;;;;26.90;96728.00;;;;5063266;28;20226;-87
2023/07/05 08:17:00;;;;;;;3.73;2.93;;;;;27.10;96736.00;;;;5068230;28;20236;-87
2023/07/05 08:19:57;;;;;;;5.43;2.33;;;;;26.80;96729.00;;;;5064189;28;20213;-88
2023/07/05 08:23:16;;;;;;;3.43;2.27;;;;;27.10;96739.00;;;;5065417;28;20223;-87
2023/07/05 08:26:12;;;;;;;4.20;2.73;;;;;27.30;96730.00;;;;5054406;28;20210;-87
2023/07/05 08:29:04;;;;;;;3.37;2.20;;;;;27.10;96743.00;;;;5067456;28;20205;-87
2023/07/05 08:32:21;;;;;;;5.27;2.73;;;;;26.20;96725.00;;;;5063580;28;20222;-88
2023/07/05 08:35:40;;;;;;;5.70;3.20;;;;;25.50;96727.00;;;;5065929;28;20304;-86
2023/07/05 08:38:45;;;;;;;;;;;;;;;;;;;;;
2023/07/05 08:42:27;;;;;;;5.93;3.00;;;;;26.00;96723.00;;;;5062863;28;20660;-87
2023/07/05 08:46:18;;;;;;;3.40;2.33;;;;;26.50;96728.00;;;;4989471;28;20206;-88
2023/07/05 08:56:48;;;;;;;4.53;3.23;;;;;26.10;96734.00;;;;5021905;28;20230;-87
2023/07/05 08:59:43;;;;;;;5.47;3.70;;;;;26.20;96732.00;;;;5063869;28;20200;-89
2023/07/05 09:02:33;;;;;;;4.00;2.80;;;;;26.20;96734.00;;;;5063211;28;20220;-88
2023/07/05 09:05:28;;;;;;;4.53;3.40;;;;;26.10;96742.00;;;;5064640;28;20189;-88
2023/07/05 09:08:25;;;;;;;12.27;5.83;;;;;26.50;96742.00;;;;5062997;28;20207;-89
2023/07/05 09:11:18;;;;;;;3.03;2.73;;;;;26.70;96741.00;;;;5064962;28;20245;-87
2023/07/05 09:14:17;;;;;;;4.73;3.83;;;;;26.60;96747.00;;;;5063411;28;20353;-87
2023/07/05 09:17:11;;;;;;;3.90;3.00;;;;;26.40;96736.00;;;;5063676;28;20204;-88
2023/07/05 09:20:06;;;;;;;7.30;3.27;;;;;26.60;96742.00;;;;5064114;28;20852;-88
2023/07/05 09:22:56;;;;;;;7.87;4.07;;;;;26.80;96728.00;;;;5065595;28;20279;-88
2023/07/05 09:25:48;;;;;;;5.67;3.47;;;;;27.10;96725.00;;;;5062931;28;20215;-88
2023/07/05 09:32:44;;;;;;;6.43;3.63;;;;;28.60;96701.00;;;;4938998;28;20224;-86
2023/07/05 09:35:37;;;;;;;3.90;2.93;;;;;29.50;96721.00;;;;5039215;28;20230;-88
2023/07/05 09:38:30;;;;;;;4.63;3.17;;;;;30.00;96726.00;;;;5066645;28;20681;-88
2023/07/05 09:41:21;;;;;;;4.07;3.00;;;;;30.10;96720.00;;;;5067728;28;20226;-88
2023/07/05 09:44:10;;;;;;;4.77;3.30;;;;;28.80;96697.00;;;;5066045;28;20204;-87
2023/07/05 09:47:00;;;;;;;4.57;3.23;;;;;29.80;96708.00;;;;5065412;28;20212;-87
2023/07/05 09:49:51;;;;;;;5.13;3.53;;;;;30.60;96705.00;;;;5063321;28;20236;-87
2023/07/05 09:52:40;;;;;;;4.83;3.60;;;;;30.60;96690.00;;;;5065477;28;20708;-87
2023/07/05 09:55:29;;;;;;;21.77;4.17;;;;;30.50;96691.00;;;;5062454;28;20226;-87
2023/07/05 09:58:25;;;;;;;4.43;3.50;;;;;31.20;96685.00;;;;5060231;28;20827;-87
2023/07/05 10:01:18;;;;;;;4.57;3.23;;;;;31.00;96679.00;;;;5062136;28;21548;-88
2023/07/05 10:04:08;;;;;;;5.43;3.60;;;;;31.50;96678.00;;;;5059873;28;20699;-87
2023/07/05 10:07:02;;;;;;;6.30;2.93;;;;;32.10;96679.00;;;;5059869;28;20242;-87
2023/07/05 10:10:01;;;;;;;3.10;2.77;;;;;31.90;96684.00;;;;5058053;28;20307;-88
2023/07/05 10:12:51;;;;;;;3.43;2.27;;;;;29.80;96677.00;;;;5061063;28;20603;-87
2023/07/05 10:15:43;;;;;;;3.67;2.93;;;;;31.40;96685.00;;;;5063529;28;20301;-88
2023/07/05 10:18:35;;;;;;;3.30;2.63;;;;;32.60;96693.00;;;;5065486;28;20201;-87
2023/07/05 10:21:24;;;;;;;3.60;2.87;;;;;29.80;96690.00;;;;5064896;28;21089;-88
2023/07/05 10:24:18;;;;;;;5.37;2.97;;;;;31.20;96695.00;;;;5063408;28;20209;-88
2023/07/05 10:27:15;;;;;;;3.07;2.63;;;;;31.40;96688.00;;;;5058892;28;20213;-86
2023/07/05 10:30:07;;;;;;;3.50;2.90;;;;;30.80;96686.00;;;;5061389;28;20209;-87
2023/07/05 10:33:11;;;;;;;4.13;3.07;;;;;31.20;96677.00;;;;5065843;28;20222;-86
2023/07/05 10:36:03;;;;;;;2.40;2.20;;;;;31.50;96666.00;;;;5059544;28;20715;-88
2023/07/05 10:38:53;;;;;;;4.83;2.90;;;;;30.70;96665.00;;;;5061827;28;20193;-87
2023/07/05 10:41:45;;;;;;;4.37;2.73;;;;;31.50;96670.00;;;;5061189;28;20239;-90
2023/07/05 10:44:36;;;;;;;3.80;2.80;;;;;31.80;96664.00;;;;5066201;28;20208;-89
2023/07/05 10:47:26;;;;;;;3.30;3.00;;;;;32.50;96654.00;;;;5066419;28;20582;-89
2023/07/05 10:50:17;;;;;;;6.63;3.10;;;;;30.40;96658.00;;;;5062514;28;20265;-90
2023/07/05 10:53:11;;;;;;;3.23;2.83;;;;;29.80;96651.00;;;;5058242;28;20211;-88
2023/07/05 10:56:05;;;;;;;3.73;2.90;;;;;30.60;96655.00;;;;5061028;28;20228;-88
2023/07/05 10:59:02;;;;;;;4.33;3.30;;;;;31.60;96644.00;;;;5059072;28;20629;-87
2023/07/05 11:01:55;;;;;;;4.13;2.97;;;;;32.40;96652.00;;;;5060180;28;20229;-87
2023/07/05 11:04:45;;;;;;;4.43;2.93;;;;;32.40;96644.00;;;;5062743;28;20222;-89
2023/07/05 11:07:34;;;;;;;3.57;2.87;;;;;32.40;96646.00;;;;5063313;28;20214;-88
2023/07/05 11:10:24;;;;;;;5.07;2.50;;;;;32.50;96637.00;;;;5065147;28;20222;-89
2023/07/05 11:13:15;;;;;;;3.13;2.53;;;;;32.60;96640.00;;;;5059041;28;20203;-87
2023/07/05 11:16:06;;;;;;;3.42;2.50;;;;;32.70;96618.00;;;;5068020;28;20571;-87
2023/07/05 11:19:00;;;;;;;5.47;3.28;;;;;31.20;96615.00;;;;5061284;28;20400;-88
2023/07/05 11:21:50;;;;;;;3.70;2.40;;;;;32.40;96617.00;;;;5066447;28;20229;-88
2023/07/05 11:24:46;;;;;;;4.07;2.80;;;;;33.00;96633.00;;;;5065712;28;20250;-88
2023/07/05 11:27:52;;;;;;;2.90;2.05;;;;;32.90;96613.00;;;;5057237;28;20213;-89
2023/07/05 11:30:44;;;;;;;3.58;2.47;;;;;34.00;96609.00;;;;5063091;28;20252;-89
2023/07/05 11:33:35;;;;;;;3.25;1.92;;;;;33.90;96607.00;;;;5054636;28;20210;-89
2023/07/05 11:36:32;;;;;;;2.63;2.42;;;;;34.30;96606.00;;;;5060054;28;20324;-89
2023/07/05 11:39:33;;;;;;;3.72;2.10;;;;;34.00;96611.00;;;;5056387;28;20220;-87
2023/07/05 11:42:41;;;;;;;3.80;3.08;;;;;34.60;96605.00;;;;5059555;28;20216;-89
2023/07/05 11:45:46;;;;;;;3.10;2.80;;;;;33.20;96601.00;;;;5061792;28;20253;-90
2023/07/05 11:48:46;;;;;;;3.40;2.35;;;;;32.70;96604.00;;;;5068271;28;20207;-89
2023/07/05 11:51:35;;;;;;;4.25;2.13;;;;;33.80;96622.00;;;;5062327;28;20232;-89
2023/07/05 11:54:43;;;;;;;3.47;2.78;;;;;32.70;96632.00;;;;5061489;28;20204;-88
2023/07/05 11:57:37;;;;;;;3.20;2.45;;;;;33.40;96639.00;;;;5065102;28;20201;-89
2023/07/05 12:00:34;;;;;;;2.78;1.83;;;;;32.50;96625.00;;;;5066182;28;20196;-88
2023/07/05 12:03:24;;;;;;;3.13;2.45;;;;;33.10;96617.00;;;;5068618;28;20205;-88
2023/07/05 12:06:20;;;;;;;4.80;2.85;;;;;31.80;96627.00;;;;5067710;28;20645;-87
2023/07/05 12:09:14;;;;;;;2.78;2.58;;;;;32.40;96624.00;;;;5065523;28;20210;-89
2023/07/05 12:12:03;;;;;;;6.40;2.33;;;;;33.30;96632.00;;;;5062890;28;20223;-89
2023/07/05 12:14:53;;;;;;;3.50;2.60;;;;;33.70;96619.00;;;;5061150;28;20207;-88
2023/07/05 12:17:43;;;;;;;3.20;2.33;;;;;32.80;96607.00;;;;5064086;28;20205;-87
2023/07/05 12:20:35;;;;;;;4.75;2.10;;;;;31.10;96615.00;;;;5064764;28;20707;-87
2023/07/05 12:23:28;;;;;;;2.50;1.92;;;;;30.60;96614.00;;;;5066380;28;20226;-87
2023/07/05 12:26:23;;;;;;;2.20;2.00;;;;;28.10;96598.00;;;;5065913;28;20215;-83
2023/07/05 12:29:22;;;;;;;1.77;1.67;;;;;28.20;96612.00;;;;5063554;28;20213;-87
2023/07/05 12:32:18;;;;;;;3.47;1.70;;;;;29.50;96637.00;;;;5066975;28;20224;-89
2023/07/05 12:35:16;;;;;;;4.27;2.43;;;;;28.50;96630.00;;;;5066993;28;20221;-88
2023/07/05 12:38:17;;;;;;;1.83;1.37;;;;;30.10;96602.00;;;;5067491;28;20211;-88
2023/07/05 12:41:14;;;;;;;2.93;1.60;;;;;30.90;96602.00;;;;5069857;28;20299;-88
2023/07/05 12:44:07;;;;;;;4.40;2.30;;;;;31.60;96567.00;;;;5071955;28;20215;-89
2023/07/05 12:47:12;;;;;;;1.67;1.50;;;;;33.10;96562.00;;;;5067271;28;20197;-89
2023/07/05 12:50:04;;;;;;;3.20;1.50;;;;;33.60;96581.00;;;;5061723;28;20593;-88
2023/07/05 12:53:05;;;;;;;3.83;1.55;;;;;33.40;96595.00;;;;5065039;28;20269;-86
2023/07/05 12:55:57;;;;;;;2.60;1.73;;;;;33.00;96593.00;;;;5065579;28;20226;-87
2023/07/05 12:58:54;;;;;;;2.30;1.52;;;;;32.80;96597.00;;;;5063055;28;20239;-87
2023/07/05 13:01:45;;;;;;;6.18;1.67;;;;;32.60;96591.00;;;;5060230;28;20222;-88
2023/07/05 13:04:37;;;;;;;1.67;1.52;;;;;32.50;96601.00;;;;5063701;28;20207;-89
2023/07/05 13:07:27;;;;;;;9.05;2.72;;;;;32.20;96610.00;;;;5069342;28;20697;-89
2023/07/05 13:10:17;;;;;;;4.05;1.75;;;;;31.80;96612.00;;;;5067133;28;20254;-90
2023/07/05 13:13:29;;;;;;;5.18;1.70;;;;;31.70;96617.00;;;;5067401;28;20668;-89
2023/07/05 13:16:21;;;;;;;1.70;1.17;;;;;31.10;96614.00;;;;5067638;28;20230;-91
2023/07/05 13:19:12;;;;;;;4.50;1.73;;;;;30.60;96608.00;;;;5065060;28;20314;-88
2023/07/05 13:22:16;;;;;;;4.85;2.05;;;;;30.80;96613.00;;;;5061516;28;20229;-89
2023/07/05 13:25:06;;;;;;;3.80;1.70;;;;;30.40;96615.00;;;;5059748;28;20292;-91
2023/07/05 13:27:57;;;;;;;5.07;1.70;;;;;30.60;96608.00;;;;5069310;28;20257;-90
2023/07/05 13:30:47;;;;;;;1.55;1.33;;;;;30.40;96613.00;;;;5065483;28;20204;-89
2023/07/05 13:33:38;;;;;;;3.63;1.77;;;;;30.00;96601.00;;;;5059910;28;20211;-90
2023/07/05 13:36:27;;;;;;;6.67;1.60;;;;;30.00;96596.00;;;;5065175;28;20231;-89
2023/07/05 13:39:19;;;;;;;4.63;1.60;;;;;29.80;96599.00;;;;5066904;28;20240;-89
2023/07/05 13:42:12;;;;;;;2.93;1.50;;;;;29.30;96592.00;;;;5066053;28;20846;-89
2023/07/05 13:45:01;;;;;;;4.23;2.23;;;;;28.90;96596.00;;;;5063970;28;20203;-91
2023/07/05 13:47:50;;;;;;;2.63;1.60;;;;;29.70;96599.00;;;;5065936;28;20711;-90
2023/07/05 13:50:41;;;;;;;2.07;1.60;;;;;29.90;96597.00;;;;5065176;28;20202;-89
2023/07/05 13:53:31;;;;;;;1.80;1.50;;;;;30.20;96595.00;;;;5062733;28;20212;-88
2023/07/05 13:56:21;;;;;;;4.00;2.07;;;;;30.20;96591.00;;;;5066643;28;20238;-88
2023/07/05 13:59:11;;;;;;;3.57;1.60;;;;;30.20;96597.00;;;;5060907;28;20223;-89
2023/07/05 14:02:30;;;;;;;2.80;1.40;;;;;30.10;96601.00;;;;5056166;28;20253;-88
2023/07/05 14:05:20;;;;;;;2.87;1.57;;;;;29.90;96597.00;;;;5061419;28;20365;-89
2023/07/05 14:08:16;;;;;;;1.60;1.50;;;;;29.80;96613.00;;;;5056888;28;20200;-89
2023/07/05 14:11:05;;;;;;;2.30;1.50;;;;;29.50;96606.00;;;;5057901;28;20230;-88
2023/07/05 14:13:55;;;;;;;2.30;1.67;;;;;29.50;96605.00;;;;5059260;28;20250;-88
2023/07/05 14:16:46;;;;;;;2.10;1.70;;;;;29.20;96605.00;;;;5059125;28;20265;-87
2023/07/05 14:19:35;;;;;;;1.87;1.40;;;;;28.40;96601.00;;;;5058296;28;20285;-89
2023/07/05 14:22:24;;;;;;;1.67;1.57;;;;;28.50;96596.00;;;;5063190;28;20224;-87
2023/07/05 14:25:19;;;;;;;2.43;2.10;;;;;28.60;96590.00;;;;5064433;28;20210;-90
2023/07/05 14:28:08;;;;;;;4.93;2.00;;;;;28.60;96594.00;;;;5064946;28;20207;-88
2023/07/05 14:30:58;;;;;;;2.60;2.00;;;;;28.40;96590.00;;;;5063714;28;20227;-88
2023/07/05 14:33:47;;;;;;;6.30;2.27;;;;;29.20;96563.00;;;;5066596;28;20200;-87
2023/07/05 14:36:36;;;;;;;2.93;1.50;;;;;29.50;96590.00;;;;5063563;28;20291;-88